Time;durP1;ratioP1;P1;durP2;ratioP2;P2;SDS_P1;SDS_P2;PMS_P1;PMS_P2;Temp;Humidity;BMP_temperature;BMP_pressure;BME280_temperature;BME280_humidity;BME280_pressure;Samples;Min_cycle;Max_cycle;Signal;HPM_P1;HPM_P2
2021/11/08 00:00:57;;;;;;;6.27;2.17;;;8.90;99.90;;;;;;4961371;28;20240;-53
2021/11/08 00:03:30;;;;;;;8.53;2.47;;;8.90;99.90;;;;;;4980067;28;20234;-52
2021/11/08 00:06:00;;;;;;;6.10;1.67;;;8.90;99.90;;;;;;4980177;28;20202;-51
2021/11/08 00:08:28;;;;;;;7.57;2.17;;;9.00;99.90;;;;;;4978513;28;20206;-51
2021/11/08 00:10:55;;;;;;;9.00;2.00;;;9.00;99.90;;;;;;4979837;28;20237;-51
2021/11/08 00:13:24;;;;;;;6.57;2.10;;;9.00;99.90;;;;;;4979675;28;20206;-53
2021/11/08 00:19:15;;;;;;;12.67;2.03;;;8.90;99.90;;;;;;4919824;29;20657;-52
2021/11/08 00:21:49;;;;;;;8.93;2.50;;;8.90;99.90;;;;;;4918227;29;20453;-52
2021/11/08 00:24:23;;;;;;;7.30;2.57;;;8.90;99.90;;;;;;4919442;29;20757;-51
2021/11/08 00:26:51;;;;;;;9.93;2.23;;;8.90;99.90;;;;;;4917432;29;20537;-52
2021/11/08 00:29:18;;;;;;;12.53;1.93;;;8.80;99.90;;;;;;4919699;29;20213;-51
2021/11/08 00:31:45;;;;;;;8.63;2.30;;;8.80;99.90;;;;;;4919558;29;20308;-51
2021/11/08 00:34:12;;;;;;;9.17;2.33;;;8.80;99.90;;;;;;4917440;29;20764;-50
2021/11/08 00:36:39;;;;;;;8.40;1.97;;;8.80;99.90;;;;;;4917943;29;20677;-52
2021/11/08 00:39:06;;;;;;;8.53;1.67;;;8.70;99.90;;;;;;4918353;29;20222;-52
2021/11/08 00:41:33;;;;;;;9.87;1.80;;;8.80;99.90;;;;;;4917677;29;20230;-51
2021/11/08 00:44:00;;;;;;;6.20;1.70;;;8.70;99.90;;;;;;4915280;29;20662;-51
2021/11/08 00:46:27;;;;;;;7.93;1.73;;;8.30;99.90;;;;;;4916738;29;20695;-53
2021/11/08 00:48:54;;;;;;;6.43;1.90;;;8.30;99.90;;;;;;4925895;28;20655;-51
2021/11/08 00:51:22;;;;;;;8.90;1.60;;;8.20;99.90;;;;;;4958575;28;20205;-51
2021/11/08 00:53:50;;;;;;;8.17;1.67;;;8.40;99.90;;;;;;4959327;28;20209;-51
2021/11/08 00:56:20;;;;;;;9.50;2.10;;;8.50;99.90;;;;;;4961030;28;20218;-50
2021/11/08 00:58:47;;;;;;;9.77;2.07;;;8.50;99.90;;;;;;4958612;28;20202;-53
2021/11/08 01:01:21;;;;;;;7.33;1.77;;;8.40;99.90;;;;;;4960181;28;20211;-51
2021/11/08 01:03:49;;;;;;;5.73;1.70;;;8.30;99.90;;;;;;4962088;28;20205;-51
2021/11/08 01:06:17;;;;;;;10.27;2.17;;;7.90;99.90;;;;;;4959373;28;20316;-51
2021/11/08 01:08:46;;;;;;;7.43;2.53;;;7.80;99.90;;;;;;4956713;28;20212;-51
2021/11/08 01:11:13;;;;;;;6.93;2.83;;;7.80;99.90;;;;;;4960622;28;20201;-51
2021/11/08 01:13:42;;;;;;;8.43;1.93;;;7.70;99.90;;;;;;4959338;28;20628;-51
2021/11/08 01:16:10;;;;;;;7.37;2.03;;;7.60;99.90;;;;;;4959007;28;20716;-52
2021/11/08 01:18:38;;;;;;;11.73;2.33;;;7.70;99.90;;;;;;4958924;28;20234;-51
2021/11/08 01:21:07;;;;;;;7.37;2.17;;;7.70;99.90;;;;;;4957436;28;20335;-53
2021/11/08 01:23:34;;;;;;;10.40;2.23;;;7.60;99.90;;;;;;4958383;28;20238;-52
2021/11/08 01:26:06;;;;;;;10.00;2.03;;;7.50;99.90;;;;;;4959095;28;20301;-52
2021/11/08 01:28:36;;;;;;;6.73;2.23;;;7.50;99.90;;;;;;4957070;28;20312;-52
2021/11/08 01:31:07;;;;;;;9.13;2.27;;;7.50;99.90;;;;;;4957773;28;20290;-52
2021/11/08 01:33:36;;;;;;;6.60;2.13;;;7.70;99.90;;;;;;4960213;28;20727;-53
2021/11/08 01:38:49;;;;;;;8.53;2.67;;;7.70;99.90;;;;;;4958890;28;20953;-53
2021/11/08 01:41:23;;;;;;;10.93;2.43;;;7.50;99.90;;;;;;4958661;28;20205;-52
2021/11/08 01:43:50;;;;;;;13.00;2.80;;;7.60;99.90;;;;;;4957038;28;20211;-52
2021/11/08 01:46:18;;;;;;;7.07;2.23;;;7.60;99.90;;;;;;4958340;28;20633;-51
2021/11/08 01:48:46;;;;;;;10.93;2.17;;;7.70;99.90;;;;;;4957734;28;20196;-53
2021/11/08 01:51:13;;;;;;;8.13;2.43;;;7.80;99.90;;;;;;4957817;28;20221;-53
2021/11/08 01:53:41;;;;;;;11.30;2.10;;;7.80;99.90;;;;;;4958777;28;20208;-52
2021/11/08 01:56:08;;;;;;;12.13;2.40;;;8.00;99.90;;;;;;4957903;28;20282;-51
2021/11/08 01:58:36;;;;;;;9.30;2.43;;;7.80;99.90;;;;;;4957686;28;20211;-53
2021/11/08 02:01:04;;;;;;;9.50;2.83;;;7.70;99.90;;;;;;4959974;28;20248;-52
2021/11/08 02:03:31;;;;;;;11.87;2.67;;;7.70;99.90;;;;;;4960264;28;20208;-51
2021/11/08 02:05:58;;;;;;;14.33;2.90;;;7.70;99.90;;;;;;4959783;28;20232;-51
2021/11/08 02:08:27;;;;;;;5.50;2.53;;;7.80;99.90;;;;;;4957144;28;20506;-51
2021/11/08 02:10:56;;;;;;;11.10;2.80;;;7.90;99.90;;;;;;4960515;28;20309;-53
2021/11/08 02:13:24;;;;;;;11.60;2.50;;;7.80;99.90;;;;;;4958244;28;20201;-53
2021/11/08 02:15:51;;;;;;;8.70;2.33;;;7.70;99.90;;;;;;4956935;28;20203;-52
2021/11/08 02:18:20;;;;;;;8.60;2.20;;;7.50;99.90;;;;;;4959013;28;20250;-52
2021/11/08 02:20:49;;;;;;;10.20;2.43;;;7.50;99.90;;;;;;4964001;28;20270;-52
2021/11/08 02:23:18;;;;;;;10.07;2.43;;;7.50;99.90;;;;;;4979086;28;20202;-51
2021/11/08 02:25:47;;;;;;;6.63;2.40;;;7.50;99.90;;;;;;4976793;28;20241;-52
2021/11/08 02:28:15;;;;;;;8.23;2.03;;;7.60;99.90;;;;;;4978235;28;20618;-51
2021/11/08 02:30:44;;;;;;;9.60;2.13;;;7.60;99.90;;;;;;4977764;28;20315;-53
2021/11/08 02:33:17;;;;;;;9.80;2.37;;;7.60;99.90;;;;;;4977138;28;20289;-53
2021/11/08 02:35:44;;;;;;;9.17;2.63;;;7.50;99.90;;;;;;4978669;28;20336;-52
2021/11/08 02:38:48;;;;;;;8.57;2.60;;;7.40;99.90;;;;;;4977598;28;20204;-53
2021/11/08 02:41:05;;;;;;;10.30;2.70;;;7.30;99.90;;;;;;4973570;28;20212;-51
2021/11/08 02:43:32;;;;;;;12.70;2.47;;;7.20;99.90;;;;;;4977619;28;20209;-53
2021/11/08 02:46:14;;;;;;;8.93;2.50;;;7.20;99.90;;;;;;4978085;28;20210;-51
2021/11/08 02:48:43;;;;;;;7.97;2.30;;;7.20;99.90;;;;;;4978534;28;20207;-53
2021/11/08 02:51:22;;;;;;;7.43;2.50;;;7.40;99.90;;;;;;4977412;28;20266;-53
2021/11/08 02:53:53;;;;;;;6.67;2.43;;;7.30;99.90;;;;;;4977436;28;20198;-52
2021/11/08 02:56:20;;;;;;;9.13;3.07;;;7.40;99.90;;;;;;4977388;28;20201;-52
2021/11/08 02:58:47;;;;;;;14.50;3.77;;;7.40;99.90;;;;;;4977903;28;20228;-53
2021/11/08 03:01:18;;;;;;;12.80;4.33;;;7.30;99.90;;;;;;4980796;28;20221;-52
2021/11/08 03:03:54;;;;;;;8.63;2.50;;;7.10;99.90;;;;;;4978477;28;20206;-52
2021/11/08 03:08:50;;;;;;;7.60;2.70;;;7.10;99.90;;;;;;4983021;28;20264;-51
2021/11/08 03:11:17;;;;;;;11.53;3.00;;;7.20;99.90;;;;;;4981675;28;20210;-52
2021/11/08 03:13:54;;;;;;;8.90;2.53;;;7.20;99.90;;;;;;4980967;28;20253;-52
2021/11/08 03:16:28;;;;;;;10.43;2.57;;;7.20;99.90;;;;;;4981094;28;20292;-53
2021/11/08 03:18:58;;;;;;;10.20;2.70;;;7.20;99.90;;;;;;4981503;28;20239;-52
2021/11/08 03:21:27;;;;;;;8.63;3.07;;;7.30;99.90;;;;;;4980278;28;20323;-51
2021/11/08 03:23:59;;;;;;;10.37;2.83;;;7.40;99.90;;;;;;4981578;28;20701;-51
2021/11/08 03:29:02;;;;;;;6.70;2.90;;;7.50;99.90;;;;;;4981363;28;20938;-51
2021/11/08 03:31:29;;;;;;;8.23;3.13;;;7.50;99.90;;;;;;4980998;28;20245;-52
2021/11/08 03:33:58;;;;;;;9.10;3.03;;;7.30;99.90;;;;;;4981592;28;20290;-51
2021/11/08 03:36:26;;;;;;;8.07;2.37;;;7.30;99.90;;;;;;4979903;28;20604;-53
2021/11/08 03:38:53;;;;;;;7.17;2.90;;;7.30;99.90;;;;;;4964802;28;20666;-51
2021/11/08 03:41:20;;;;;;;10.67;3.10;;;7.30;99.90;;;;;;4979446;28;20236;-51
2021/11/08 03:43:48;;;;;;;11.47;2.90;;;7.30;99.90;;;;;;4978646;28;20307;-51
2021/11/08 03:46:15;;;;;;;10.13;3.03;;;7.40;99.90;;;;;;4979491;28;20222;-54
2021/11/08 03:48:44;;;;;;;9.23;2.87;;;7.40;99.90;;;;;;4979047;28;20218;-51
2021/11/08 03:51:11;;;;;;;11.40;2.90;;;7.60;99.90;;;;;;4981144;28;20290;-51
2021/11/08 03:53:39;;;;;;;10.97;2.77;;;7.40;99.90;;;;;;4978767;28;20254;-53
2021/11/08 03:56:06;;;;;;;8.87;3.03;;;7.40;99.90;;;;;;4980798;28;20727;-53
2021/11/08 03:58:34;;;;;;;9.80;3.47;;;7.40;99.90;;;;;;4979216;28;20325;-53
2021/11/08 04:01:01;;;;;;;13.50;2.93;;;7.50;99.90;;;;;;4981094;28;20309;-51
2021/11/08 04:03:29;;;;;;;13.67;2.83;;;7.40;99.90;;;;;;4980385;28;20855;-54
2021/11/08 04:05:57;;;;;;;10.87;2.80;;;7.40;99.90;;;;;;4979188;28;20285;-51
2021/11/08 04:08:25;;;;;;;13.83;2.90;;;7.40;99.90;;;;;;4979114;28;20325;-52
2021/11/08 04:10:54;;;;;;;9.23;2.70;;;7.50;99.90;;;;;;4979994;28;20324;-52
2021/11/08 04:13:28;;;;;;;9.63;3.00;;;7.50;99.90;;;;;;4979976;28;20783;-52
2021/11/08 04:15:56;;;;;;;10.67;2.77;;;7.40;99.90;;;;;;4980778;28;20662;-54
2021/11/08 04:18:25;;;;;;;12.20;3.27;;;7.40;99.90;;;;;;4977872;28;20808;-52
2021/11/08 04:20:53;;;;;;;13.03;3.23;;;7.40;99.90;;;;;;4980227;28;20327;-53
2021/11/08 04:23:23;;;;;;;10.27;3.37;;;7.50;99.90;;;;;;4979671;28;20900;-52
2021/11/08 04:25:52;;;;;;;13.90;4.07;;;7.50;99.90;;;;;;4980108;28;20667;-52
2021/11/08 04:28:20;;;;;;;8.20;3.00;;;7.40;99.90;;;;;;4979148;28;20203;-53
2021/11/08 04:30:47;;;;;;;10.97;3.33;;;7.30;99.90;;;;;;4979969;28;20734;-53
2021/11/08 04:36:39;;;;;;;11.53;2.90;;;7.50;99.90;;;;;;4979276;28;20687;-52
2021/11/08 04:42:06;;;;;;;11.77;2.87;;;7.70;99.90;;;;;;4958343;28;20297;-54
2021/11/08 05:21:11;;;;;;;10.73;2.97;;;7.30;99.90;;;;;;4912629;29;20203;-51
2021/11/08 05:31:38;;;;;;;20.10;4.67;;;7.50;99.90;;;;;;4915761;29;20641;-52
2021/11/08 05:34:05;;;;;;;15.90;4.43;;;7.40;99.90;;;;;;4916151;29;20780;-51
2021/11/08 05:36:32;;;;;;;15.87;4.33;;;7.50;99.90;;;;;;4978033;28;20290;-53
2021/11/08 05:39:00;;;;;;;11.70;4.67;;;7.40;99.90;;;;;;4979489;28;20661;-52
2021/11/08 05:41:28;;;;;;;14.13;5.00;;;7.40;99.90;;;;;;4978554;28;20198;-50
2021/11/08 05:44:02;;;;;;;11.33;4.13;;;7.50;99.90;;;;;;4977548;28;20293;-53
2021/11/08 05:46:33;;;;;;;14.93;3.67;;;7.60;99.90;;;;;;4978557;28;20675;-51
2021/11/08 05:49:00;;;;;;;11.33;4.10;;;7.50;99.90;;;;;;4978118;28;20550;-51
2021/11/08 05:51:28;;;;;;;21.83;5.13;;;7.60;99.90;;;;;;4978945;28;20565;-53
2021/11/08 05:53:55;;;;;;;19.37;4.30;;;7.50;99.90;;;;;;4978421;28;20784;-51
2021/11/08 05:56:33;;;;;;;8.93;4.47;;;7.50;99.90;;;;;;4980133;28;20318;-54
2021/11/08 06:51:06;;;;;;;19.83;5.23;;;7.70;99.90;;;;;;4976067;28;20307;-52
2021/11/08 06:53:33;;;;;;;14.83;4.53;;;7.60;99.90;;;;;;4977899;28;20280;-51
2021/11/08 06:56:01;;;;;;;15.17;5.03;;;7.70;99.90;;;;;;4975632;28;20301;-53
2021/11/08 06:58:28;;;;;;;17.57;4.63;;;7.80;99.90;;;;;;4973383;28;20285;-51
2021/11/08 07:00:56;;;;;;;14.30;4.87;;;7.60;99.90;;;;;;4969861;28;21246;-51
2021/11/08 07:03:23;;;;;;;14.97;4.90;;;7.60;99.90;;;;;;4977181;28;20244;-51
2021/11/08 07:05:50;;;;;;;15.77;5.00;;;7.60;99.90;;;;;;4975193;28;20226;-51
2021/11/08 07:08:17;;;;;;;22.37;5.17;;;7.70;99.90;;;;;;4976694;28;20228;-52
2021/11/08 07:10:45;;;;;;;13.97;4.83;;;7.80;99.90;;;;;;4977898;28;20213;-51
2021/11/08 07:13:13;;;;;;;13.70;6.07;;;7.80;99.90;;;;;;4976117;28;20203;-53
2021/11/08 07:15:41;;;;;;;16.80;5.07;;;7.90;99.90;;;;;;4973110;28;20234;-51
2021/11/08 07:18:13;;;;;;;18.77;4.77;;;7.80;99.90;;;;;;4975428;28;20246;-50
2021/11/08 07:20:40;;;;;;;24.60;5.50;;;8.00;99.90;;;;;;4976577;28;20267;-51
2021/11/08 07:23:07;;;;;;;13.83;5.13;;;8.00;99.90;;;;;;4975667;28;20207;-50
2021/11/08 07:25:34;;;;;;;17.17;5.10;;;8.10;99.90;;;;;;4974316;28;20337;-52
2021/11/08 07:28:04;;;;;;;16.37;4.33;;;8.10;99.90;;;;;;4974576;28;21130;-51
2021/11/08 07:30:31;;;;;;;17.07;4.87;;;8.10;99.90;;;;;;4972548;28;20229;-52
2021/11/08 07:32:58;;;;;;;17.00;5.10;;;8.00;99.90;;;;;;4974768;28;20205;-53
2021/11/08 07:35:25;;;;;;;14.40;5.37;;;8.10;99.90;;;;;;4976258;28;20292;-51
2021/11/08 07:37:52;;;;;;;13.70;4.80;;;7.90;99.90;;;;;;4971843;28;20254;-51
2021/11/08 07:40:19;;;;;;;19.50;6.07;;;8.10;99.90;;;;;;4972734;28;20341;-50
2021/11/08 07:42:47;;;;;;;17.97;5.13;;;8.30;99.90;;;;;;4973056;28;20272;-51
2021/11/08 07:45:13;;;;;;;11.83;4.73;;;8.30;99.90;;;;;;4972384;28;20636;-52
2021/11/08 07:47:40;;;;;;;23.33;6.33;;;8.40;99.90;;;;;;4974915;28;20961;-51
2021/11/08 07:50:19;;;;;;;12.67;4.80;;;8.50;99.90;;;;;;4974994;28;20253;-51
2021/11/08 07:52:46;;;;;;;14.77;5.10;;;8.50;99.90;;;;;;4979578;28;20319;-52
2021/11/08 07:55:13;;;;;;;17.30;5.80;;;8.60;99.90;;;;;;4976655;28;20258;-53
2021/11/08 07:57:40;;;;;;;18.17;6.60;;;8.50;99.90;;;;;;4976046;28;20577;-51
2021/11/08 08:00:08;;;;;;;18.97;6.00;;;8.50;99.90;;;;;;4975520;28;20230;-60
2021/11/08 08:02:35;;;;;;;13.67;4.70;;;8.50;99.90;;;;;;4974522;28;20211;-58
2021/11/08 08:05:03;;;;;;;12.97;5.07;;;8.50;99.90;;;;;;4977783;28;20243;-59
2021/11/08 08:07:29;;;;;;;15.10;4.43;;;8.80;99.90;;;;;;4973231;28;20823;-58
2021/11/08 08:10:00;;;;;;;15.37;4.60;;;8.80;99.90;;;;;;4977310;28;20305;-59
2021/11/08 08:12:27;;;;;;;16.67;5.27;;;9.00;99.90;;;;;;4975253;28;20216;-57
2021/11/08 08:14:54;;;;;;;15.27;4.37;;;9.00;99.90;;;;;;4976514;28;20223;-57
2021/11/08 08:17:21;;;;;;;23.97;5.43;;;9.00;99.90;;;;;;4974115;28;21156;-59
2021/11/08 08:19:48;;;;;;;12.80;4.93;;;9.00;99.90;;;;;;4975254;28;20323;-58
2021/11/08 08:22:14;;;;;;;14.00;4.70;;;9.00;99.90;;;;;;4975930;28;20718;-59
2021/11/08 08:24:41;;;;;;;15.47;4.47;;;8.80;99.90;;;;;;4974603;28;20568;-60
2021/11/08 08:27:08;;;;;;;21.57;5.07;;;9.00;99.90;;;;;;4977450;28;20270;-50
2021/11/08 08:29:35;;;;;;;17.50;4.93;;;9.00;99.90;;;;;;4975764;28;20288;-58
2021/11/08 08:32:05;;;;;;;22.47;5.23;;;8.90;99.90;;;;;;4975410;28;20219;-51
2021/11/08 08:34:47;;;;;;;14.63;5.93;;;8.90;99.90;;;;;;4973119;28;20633;-51
2021/11/08 08:37:14;;;;;;;18.23;6.20;;;8.90;99.90;;;;;;4974033;28;20204;-50
2021/11/08 08:39:41;;;;;;;13.73;4.40;;;8.90;99.90;;;;;;4978863;28;20895;-51
2021/11/08 08:42:09;;;;;;;14.20;4.83;;;8.80;99.90;;;;;;4961245;28;20211;-49
2021/11/08 08:44:36;;;;;;;15.27;5.23;;;8.80;99.90;;;;;;4976413;28;20285;-50
2021/11/08 08:47:04;;;;;;;15.93;5.60;;;8.70;99.90;;;;;;4976184;28;20895;-52
2021/11/08 08:49:31;;;;;;;15.10;5.43;;;8.90;99.90;;;;;;4977483;28;20227;-51
2021/11/08 08:51:58;;;;;;;11.70;4.73;;;8.90;99.90;;;;;;4978744;28;21374;-52
2021/11/08 08:54:25;;;;;;;19.70;5.00;;;9.00;99.90;;;;;;4974754;28;20237;-51
2021/11/08 08:56:53;;;;;;;10.30;4.57;;;9.00;99.90;;;;;;4972729;28;20286;-50
2021/11/08 08:59:21;;;;;;;16.30;4.87;;;9.00;99.90;;;;;;4976039;28;20209;-51
2021/11/08 09:01:50;;;;;;;13.77;4.13;;;9.20;99.90;;;;;;4974171;28;20307;-51
2021/11/08 09:04:17;;;;;;;18.97;4.40;;;9.20;99.90;;;;;;4975868;28;23152;-50
2021/11/08 09:06:44;;;;;;;8.90;4.00;;;9.20;99.90;;;;;;4972416;28;20244;-53
2021/11/08 09:09:11;;;;;;;18.93;4.57;;;9.20;99.90;;;;;;4980632;28;20632;-50
2021/11/08 09:11:38;;;;;;;16.67;4.37;;;9.40;99.90;;;;;;4975730;28;20320;-51
2021/11/08 09:14:05;;;;;;;9.63;3.60;;;9.30;99.90;;;;;;4973406;28;20208;-51
2021/11/08 09:16:33;;;;;;;11.13;4.33;;;9.30;99.90;;;;;;4972519;28;20297;-51
2021/11/08 09:19:00;;;;;;;14.20;4.87;;;9.30;99.90;;;;;;4974897;28;20306;-51
2021/11/08 09:21:29;;;;;;;14.00;4.07;;;9.40;99.90;;;;;;4974192;28;20625;-51
2021/11/08 09:23:57;;;;;;;9.37;4.33;;;9.40;99.90;;;;;;4973120;28;20301;-51
2021/11/08 09:26:33;;;;;;;13.03;4.07;;;9.60;99.90;;;;;;4973577;28;20206;-50
2021/11/08 09:29:00;;;;;;;18.27;3.80;;;9.40;99.90;;;;;;4973355;28;20305;-50
2021/11/08 09:31:27;;;;;;;16.30;4.63;;;9.50;99.90;;;;;;4976095;28;20314;-50
2021/11/08 09:34:03;;;;;;;14.47;3.97;;;9.60;99.90;;;;;;4977316;28;20202;-52
2021/11/08 09:36:32;;;;;;;17.47;4.40;;;9.50;99.90;;;;;;4975509;28;22256;-53
2021/11/08 09:39:00;;;;;;;17.60;5.13;;;9.50;99.90;;;;;;4971054;28;20211;-50
2021/11/08 09:41:33;;;;;;;13.53;5.40;;;9.40;99.90;;;;;;4977963;28;20217;-50
2021/11/08 09:44:02;;;;;;;10.20;4.20;;;9.40;99.90;;;;;;4974792;28;20214;-61
2021/11/08 09:46:30;;;;;;;15.40;4.67;;;9.30;99.90;;;;;;4975781;28;20255;-60
2021/11/08 09:49:00;;;;;;;19.60;4.97;;;9.30;99.90;;;;;;4973719;28;20235;-50
2021/11/08 09:51:30;;;;;;;16.50;4.70;;;9.50;99.90;;;;;;4975487;28;20865;-52
2021/11/08 09:53:57;;;;;;;13.53;3.83;;;9.40;99.90;;;;;;4976599;28;20233;-51
2021/11/08 09:56:24;;;;;;;12.03;3.87;;;9.40;99.90;;;;;;4974594;28;20290;-50
2021/11/08 09:58:56;;;;;;;15.80;4.30;;;9.50;99.90;;;;;;4971865;28;20288;-53
2021/11/08 10:01:45;;;;;;;13.23;4.17;;;9.50;99.90;;;;;;4973502;28;20250;-50
2021/11/08 10:04:12;;;;;;;12.13;4.00;;;9.50;99.90;;;;;;4970225;28;20245;-53
2021/11/08 10:06:41;;;;;;;14.20;4.47;;;9.60;99.90;;;;;;4974300;28;20199;-51
2021/11/08 10:09:11;;;;;;;15.13;4.90;;;9.70;99.90;;;;;;4975027;28;20311;-52
2021/11/08 10:11:40;;;;;;;13.90;4.20;;;9.70;99.90;;;;;;4976178;28;20350;-52
2021/11/08 10:14:08;;;;;;;17.17;4.53;;;9.80;99.90;;;;;;4975036;28;20234;-55
2021/11/08 10:16:38;;;;;;;14.30;4.53;;;9.70;99.90;;;;;;4972543;28;20278;-52
2021/11/08 10:19:08;;;;;;;15.03;4.83;;;9.80;99.90;;;;;;4977232;28;20712;-50
2021/11/08 10:21:50;;;;;;;16.17;3.70;;;9.80;99.90;;;;;;4975510;28;20288;-52
2021/11/08 10:24:29;;;;;;;11.07;4.10;;;9.80;99.90;;;;;;4957638;28;20237;-51
2021/11/08 10:27:01;;;;;;;13.40;4.30;;;9.90;99.90;;;;;;4978610;28;20782;-51
2021/11/08 10:29:28;;;;;;;13.47;4.37;;;10.00;99.90;;;;;;4978484;28;20252;-51
2021/11/08 10:32:13;;;;;;;18.23;4.10;;;10.10;99.90;;;;;;4980891;28;20221;-50
2021/11/08 10:34:53;;;;;;;15.97;4.30;;;10.10;99.90;;;;;;4974287;28;20630;-52
2021/11/08 10:37:26;;;;;;;15.17;4.10;;;10.40;99.90;;;;;;4980524;28;20266;-51
2021/11/08 10:39:54;;;;;;;16.07;3.93;;;10.40;99.90;;;;;;4979364;28;20204;-51
2021/11/08 10:42:24;;;;;;;10.17;3.77;;;10.50;99.90;;;;;;4978085;28;20216;-50
2021/11/08 10:44:53;;;;;;;12.83;3.97;;;10.60;99.90;;;;;;4976737;28;20253;-52
2021/11/08 10:47:21;;;;;;;15.10;3.60;;;10.60;98.90;;;;;;4976550;28;20732;-51
2021/11/08 10:49:49;;;;;;;13.03;4.77;;;11.00;87.90;;;;;;4976546;28;20297;-50
2021/11/08 10:52:18;;;;;;;13.60;3.90;;;11.10;1.00;;;;;;4975459;28;20296;-52
2021/11/08 10:54:50;;;;;;;12.63;3.93;;;11.40;1.00;;;;;;4970884;28;20264;-51
2021/11/08 10:57:19;;;;;;;17.10;4.37;;;11.60;1.00;;;;;;4973690;28;20309;-50
2021/11/08 10:59:55;;;;;;;12.43;3.87;;;11.90;1.00;;;;;;4972965;28;20198;-52
2021/11/08 11:02:25;;;;;;;14.00;4.30;;;11.90;1.00;;;;;;4973342;28;20241;-51
2021/11/08 11:04:58;;;;;;;13.03;3.60;;;12.30;1.00;;;;;;4973205;28;20233;-50
2021/11/08 11:07:38;;;;;;;9.17;3.60;;;12.40;1.00;;;;;;4974722;28;20202;-50
2021/11/08 11:10:09;;;;;;;12.13;4.03;;;12.60;1.00;;;;;;4974170;28;20719;-49
2021/11/08 11:12:41;;;;;;;14.73;3.80;;;12.70;99.90;;;;;;4970417;28;21850;-50
2021/11/08 11:15:11;;;;;;;15.00;4.07;;;12.50;1.00;;;;;;4971384;28;20230;-49
2021/11/08 11:17:58;;;;;;;12.23;4.10;;;12.70;99.90;;;;;;4974921;28;20213;-50
2021/11/08 11:20:30;;;;;;;12.00;3.80;;;13.00;99.90;;;;;;4975613;28;20245;-50
2021/11/08 11:23:04;;;;;;;14.87;4.10;;;12.90;99.90;;;;;;4964476;28;20676;-50
2021/11/08 11:25:35;;;;;;;14.13;4.13;;;13.20;1.00;;;;;;4977341;28;20306;-53
2021/11/08 11:28:04;;;;;;;11.40;3.50;;;13.70;99.90;;;;;;4979330;28;20244;-50
2021/11/08 11:30:44;;;;;;;14.87;4.40;;;13.70;1.00;;;;;;4978405;28;20281;-52
2021/11/08 11:33:13;;;;;;;12.83;4.83;;;14.00;99.90;;;;;;4974421;28;20389;-51
2021/11/08 11:35:52;;;;;;;14.60;3.50;;;13.90;99.90;;;;;;4977811;28;20298;-51
2021/11/08 11:38:28;;;;;;;14.30;3.87;;;14.00;99.90;;;;;;4971689;28;20771;-51
2021/11/08 11:41:12;;;;;;;12.47;4.03;;;14.30;1.00;;;;;;4979808;28;20314;-51
2021/11/08 11:43:50;;;;;;;14.17;3.30;;;14.50;99.90;;;;;;4978304;28;20202;-50
2021/11/08 11:46:21;;;;;;;17.57;4.60;;;15.10;54.50;;;;;;4979822;28;20244;-52
2021/11/08 11:48:49;;;;;;;12.50;3.50;;;14.50;1.00;;;;;;4977466;28;20331;-50
2021/11/08 11:51:22;;;;;;;11.47;3.57;;;14.50;50.00;;;;;;4967326;28;20252;-53
2021/11/08 11:53:50;;;;;;;11.60;3.33;;;14.60;1.00;;;;;;4976533;28;20307;-51
2021/11/08 11:56:19;;;;;;;14.67;3.43;;;14.50;99.90;;;;;;4979648;28;20253;-51
2021/11/08 11:58:47;;;;;;;10.50;3.97;;;14.80;98.10;;;;;;4980275;28;20278;-51
2021/11/08 12:01:17;;;;;;;13.33;3.70;;;15.10;99.90;;;;;;4980066;28;20236;-51
2021/11/08 12:03:44;;;;;;;14.50;3.70;;;14.40;1.00;;;;;;4980171;28;20226;-50
2021/11/08 12:06:14;;;;;;;9.03;3.07;;;15.00;99.90;;;;;;4980059;28;20217;-51
2021/11/08 12:08:42;;;;;;;9.87;3.50;;;15.10;1.00;;;;;;4979115;28;22442;-50
2021/11/08 12:11:10;;;;;;;13.00;3.37;;;14.70;1.00;;;;;;4982406;28;20296;-50
2021/11/08 12:14:03;;;;;;;9.80;3.23;;;15.10;1.00;;;;;;4980674;28;20230;-50
2021/11/08 12:16:33;;;;;;;8.30;3.20;;;15.50;1.00;;;;;;4980103;28;20268;-51
2021/11/08 12:19:02;;;;;;;9.87;3.17;;;15.90;99.90;;;;;;4981536;28;20309;-50
2021/11/08 12:21:35;;;;;;;9.03;2.83;;;16.40;99.90;;;;;;4978915;28;20648;-51
2021/11/08 12:24:18;;;;;;;12.83;3.10;;;17.10;94.00;;;;;;4980646;28;20239;-49
2021/11/08 12:26:45;;;;;;;13.47;3.27;;;16.20;1.00;;;;;;4979267;28;20206;-50
2021/11/08 12:29:19;;;;;;;8.37;2.43;;;15.90;99.90;;;;;;4976792;28;20212;-51
2021/11/08 12:31:59;;;;;;;6.93;2.40;;;15.20;99.90;;;;;;4978767;28;20302;-51
2021/11/08 12:34:26;;;;;;;13.57;3.10;;;14.70;1.00;;;;;;4980778;28;20811;-51
2021/11/08 12:36:56;;;;;;;9.83;2.73;;;14.40;99.90;;;;;;4982706;28;20281;-51
2021/11/08 12:39:24;;;;;;;9.63;2.70;;;14.50;93.80;;;;;;4974472;28;20211;-50
2021/11/08 12:41:56;;;;;;;6.63;2.23;;;14.30;1.00;;;;;;4977313;28;20684;-52
2021/11/08 12:44:43;;;;;;;11.90;3.13;;;13.80;1.00;;;;;;4975099;28;20202;-51
2021/11/08 12:47:12;;;;;;;12.20;2.37;;;13.30;1.00;;;;;;4976668;28;20229;-50
2021/11/08 12:49:50;;;;;;;7.43;2.23;;;13.50;1.00;;;;;;4977079;28;20256;-51
2021/11/08 12:52:31;;;;;;;14.53;2.40;;;13.50;1.00;;;;;;4976126;28;20700;-51
2021/11/08 12:55:04;;;;;;;6.53;2.27;;;13.50;1.00;;;;;;4981536;28;20217;-51
2021/11/08 12:57:32;;;;;;;14.03;2.37;;;13.50;99.90;;;;;;4979811;28;20270;-51
2021/11/08 13:00:18;;;;;;;9.67;2.80;;;13.20;99.90;;;;;;4980202;28;20670;-51
2021/11/08 13:02:54;;;;;;;12.30;2.47;;;13.10;1.00;;;;;;4978772;28;20241;-51
2021/11/08 13:05:54;;;;;;;10.23;2.60;;;13.20;1.00;;;;;;4980036;28;20304;-51
2021/11/08 13:08:24;;;;;;;10.67;3.13;;;13.30;1.00;;;;;;4947796;28;20244;-50
2021/11/08 13:11:10;;;;;;;8.93;2.63;;;13.30;99.90;;;;;;4981782;28;20237;-52
2021/11/08 13:14:01;;;;;;;7.70;2.00;;;13.20;99.90;;;;;;4977460;28;20248;-51
2021/11/08 13:16:43;;;;;;;14.60;2.60;;;13.10;1.00;;;;;;4979239;28;20237;-51
2021/11/08 13:19:13;;;;;;;13.57;2.60;;;12.90;57.50;;;;;;4974613;28;20229;-50
2021/11/08 13:21:41;;;;;;;9.53;2.70;;;12.70;1.00;;;;;;4979278;28;20719;-50
2021/11/08 13:24:09;;;;;;;11.27;2.27;;;12.70;99.90;;;;;;4977844;28;20213;-50
2021/11/08 13:26:46;;;;;;;7.27;1.90;;;12.70;99.90;;;;;;4981362;28;20240;-52
2021/11/08 13:29:19;;;;;;;8.60;3.00;;;12.70;1.00;;;;;;4978642;28;20204;-51
2021/11/08 13:31:47;;;;;;;11.33;2.43;;;12.70;1.00;;;;;;4980282;28;20208;-51
2021/11/08 13:34:14;;;;;;;11.63;2.80;;;12.60;99.90;;;;;;4975575;28;20715;-51
2021/11/08 13:36:46;;;;;;;9.90;2.40;;;12.60;99.90;;;;;;4979181;28;20244;-53
2021/11/08 13:39:13;;;;;;;15.20;2.80;;;12.70;99.90;;;;;;4978896;28;20205;-51
2021/11/08 13:41:41;;;;;;;11.77;2.80;;;12.80;1.00;;;;;;4977169;28;20691;-51
2021/11/08 13:44:12;;;;;;;9.97;2.50;;;12.80;1.00;;;;;;4979329;28;20304;-51
2021/11/08 13:46:42;;;;;;;12.00;2.40;;;12.80;1.00;;;;;;4978842;28;20258;-52
2021/11/08 13:49:13;;;;;;;9.03;2.33;;;12.70;1.00;;;;;;4978432;28;20238;-52
2021/11/08 13:51:44;;;;;;;11.77;2.87;;;12.60;1.00;;;;;;4978664;28;20225;-51
2021/11/08 13:54:23;;;;;;;8.77;2.97;;;12.60;1.00;;;;;;4978829;28;20253;-52
2021/11/08 13:56:57;;;;;;;13.53;2.83;;;12.60;1.00;;;;;;4977668;28;20221;-51
2021/11/08 13:59:30;;;;;;;15.13;2.80;;;12.70;1.00;;;;;;4978670;28;20239;-51
2021/11/08 14:02:09;;;;;;;13.13;2.47;;;12.70;1.00;;;;;;4975069;28;20213;-52
2021/11/08 14:04:42;;;;;;;11.00;2.50;;;12.70;99.90;;;;;;4979525;28;20215;-52
2021/11/08 14:07:10;;;;;;;6.87;2.23;;;12.90;99.90;;;;;;4974002;28;20236;-51
2021/11/08 14:09:40;;;;;;;8.37;2.57;;;12.90;99.90;;;;;;4978772;28;20213;-50
2021/11/08 14:12:11;;;;;;;9.30;2.37;;;12.80;1.00;;;;;;4977521;28;20272;-50
2021/11/08 14:14:38;;;;;;;8.80;2.87;;;12.70;99.90;;;;;;4979204;28;20293;-51
2021/11/08 14:17:10;;;;;;;9.37;2.60;;;12.80;1.00;;;;;;4980355;28;20267;-50
2021/11/08 14:19:37;;;;;;;11.10;2.60;;;12.90;84.70;;;;;;4978943;28;20299;-51
2021/11/08 14:22:05;;;;;;;10.33;2.90;;;12.70;1.00;;;;;;4976861;28;20715;-51
2021/11/08 14:24:37;;;;;;;12.80;2.40;;;12.70;70.60;;;;;;4977373;28;20213;-52
2021/11/08 14:27:05;;;;;;;10.47;2.70;;;12.70;12.20;;;;;;4977205;28;20205;-51
2021/11/08 14:29:33;;;;;;;10.80;2.27;;;12.80;1.00;;;;;;4970232;28;20253;-51
2021/11/08 14:32:07;;;;;;;8.20;2.60;;;12.80;43.00;;;;;;4978203;28;20240;-51
2021/11/08 14:34:39;;;;;;;9.43;2.70;;;12.90;30.90;;;;;;4978031;28;20267;-51
2021/11/08 14:37:12;;;;;;;11.63;2.73;;;12.80;99.90;;;;;;4973494;28;20353;-51
2021/11/08 14:39:47;;;;;;;8.53;2.70;;;12.90;1.00;;;;;;4970322;28;20340;-51
2021/11/08 14:42:16;;;;;;;9.63;2.97;;;12.90;26.90;;;;;;4977263;28;20255;-52
2021/11/08 14:44:58;;;;;;;11.47;2.53;;;12.90;1.00;;;;;;4992713;28;20279;-51
2021/11/08 14:47:31;;;;;;;10.53;2.73;;;12.80;1.00;;;;;;4987746;28;20201;-52
2021/11/08 14:50:08;;;;;;;8.20;2.83;;;12.70;1.00;;;;;;4980734;28;20213;-51
2021/11/08 14:52:41;;;;;;;10.87;2.70;;;12.60;1.00;;;;;;4976669;28;20352;-50
2021/11/08 14:55:12;;;;;;;14.97;2.77;;;12.60;99.90;;;;;;4988583;28;20295;-53
2021/11/08 14:57:51;;;;;;;13.67;3.03;;;12.50;1.00;;;;;;4983132;28;20197;-50